Flight Track Log - Related Links

Times and Time Zones

All times are in EDT time to prevent confusion due to time zone crossing. See the ENY3688 flight status page for this flight to view local times or setup timezone preferences in your user account.

Time Position Orientation Groundspeed Altitude Reporting Facility
EDT Latitude Longitude Course Direction KTS MPH feet Rate Location/Type
Mon 06:07:32 PM 25.8011 -80.2722 209° Southwest 147 169 600  Level Miami Center
Mon 06:07:49 PM 25.7983 -80.2619 107° East 156 180 1,100 2,137 Climbing Miami Center
Mon 06:08:45 PM 25.7739 -80.2078 117° Southeast 214 246 3,200 2,359 Climbing Miami Center
Mon 06:09:46 PM 25.7183 -80.1894 163° South 219 252 5,700 2,618 Climbing Miami Center
Mon 06:10:00 PM 25.6066 -80.2230 209° Southwest  Level FlightAware Approximate
Mon 06:10:35 PM 25.6664 -80.1833 174° South 228 262 8,000  Level Miami Center
Mon 06:10:54 PM 25.6572 -80.1833 180° South 223 257 8,300 2,239 Climbing Miami Center
Mon 06:11:00 PM 25.5228 -80.2754 209° Southwest  Level FlightAware Approximate
Mon 06:11:42 PM 25.6114 -80.2275 221° Southwest 228 262 10,500  Level Miami Center
Mon 06:11:56 PM 25.6081 -80.2303 217° Southwest 231 266 10,600 1,816 Climbing Miami Center
Mon 06:12:00 PM 25.4390 -80.3277 209° Southwest  Level FlightAware Approximate
Mon 06:12:58 PM 25.5469 -80.2972 225° Southwest 254 292 12,800  Level Miami Center
Mon 06:14:00 PM 25.4931 -80.3575 225° Southwest 266 306 15,000 1,645 Climbing Miami Center
Mon 06:15:02 PM 25.4250 -80.4019 211° Southwest 284 327 16,200 927 Climbing Miami Center
Mon 06:16:03 PM 25.3514 -80.4486 210° Southwest 298 343 16,900 341 Climbing Miami Center
Mon 06:17:05 PM 25.2731 -80.4994 210° Southwest 324 373 16,900  Level Miami Center
Mon 06:18:07 PM 25.1922 -80.5517 210° Southwest 333 383 16,900  Level Miami Center
Mon 06:19:09 PM 25.1111 -80.6022 209° Southwest 333 383 16,900 -98 Level Miami Center
Mon 06:20:10 PM 25.0325 -80.6531 210° Southwest 332 382 16,700 -585 Descending Miami Center
Mon 06:21:12 PM 24.9622 -80.7081 215° Southwest 315 362 15,700 -968 Descending Miami Center
Mon 06:22:14 PM 24.8900 -80.7631 215° Southwest 307 353 14,700 -1,268 Descending Miami Center
Mon 06:23:15 PM 24.8081 -80.8283 216° Southwest 307 353 13,100 -1,512 Descending Miami Center
Mon 06:24:17 PM 24.7397 -80.8808 215° Southwest 304 350 11,600 -1,403 Descending Miami Center
Mon 06:25:19 PM 24.6750 -80.9292 214° Southwest 288 331 10,200 -829 Descending Miami Center
Mon 06:26:20 PM 24.6117 -80.9797 216° Southwest 282 325 9,900 -146 Descending Miami Center
Mon 06:27:22 PM 24.5822 -81.0581 248° West 289 333 9,900 -581 Level Miami Center
Mon 06:28:24 PM 24.5636 -81.1406 256° West 282 325 8,700 -1,113 Descending Miami Center
Mon 06:29:26 PM 24.5442 -81.2194 255° West 272 313 7,600 -1,024 Descending Miami Center
Mon 06:30:27 PM 24.5269 -81.2986 257° West 271 312 6,600 -1,122 Descending Miami Center
Mon 06:31:29 PM 24.5039 -81.3925 255° West 269 310 5,300 -919 Descending Miami Center
Mon 06:32:31 PM 24.4886 -81.4694 258° West 262 302 4,700 -976 Descending Miami Center
Mon 06:33:32 PM 24.4956 -81.5494 275° West 260 299 3,300 -1,317 Descending Miami Center
Mon 06:34:34 PM 24.5017 -81.6317 275° West 262 302 2,000 -878 Descending Miami Center
Mon 06:35:35 PM 24.5172 -81.7056 283° West 247 284 1,500 -244 Descending Miami Center
Mon 06:36:37 PM 24.5203 -81.7717 273° West 223 257 1,500 -146 Level Miami Center
Mon 06:37:38 PM 24.5311 -81.8150 285° West 181 208 1,200 -488 Descending Miami Center
Mon 06:38:40 PM 24.5556 -81.7936 39° Northeast 156 180 500 -677 Descending Miami Center

Login

Don't have an account? Register now (free) for customized features, flight alerts, and more!